createdAt,value
2023-03-15T00:01:21.147Z,100076.28
2023-03-15T00:03:48.039Z,100079.22
2023-03-15T00:06:14.740Z,100086.13
2023-03-15T00:08:41.229Z,100086.00
2023-03-15T00:11:07.781Z,100099.28
2023-03-15T00:13:34.362Z,100100.03
2023-03-15T00:16:06.013Z,100103.50
2023-03-15T00:18:32.539Z,100105.53
2023-03-15T00:20:59.221Z,100104.09
2023-03-15T00:23:26.401Z,100114.38
2023-03-15T00:25:53.688Z,100120.56
2023-03-15T00:28:20.706Z,100125.53
2023-03-15T00:30:47.164Z,100124.91
2023-03-15T00:33:14.938Z,100123.91
2023-03-15T00:35:43.346Z,100131.50
2023-03-15T00:38:10.640Z,100136.34
2023-03-15T00:40:38.172Z,100138.13
2023-03-15T00:43:15.191Z,100142.78
2023-03-15T00:45:41.544Z,100141.84
2023-03-15T00:48:08.836Z,100144.13
2023-03-15T00:50:35.290Z,100142.00
2023-03-15T00:53:01.781Z,100161.69
2023-03-15T00:55:28.383Z,100157.09
2023-03-15T00:57:54.960Z,100168.53
2023-03-15T01:00:24.657Z,100170.91
2023-03-15T01:02:53.004Z,100169.75
2023-03-15T01:05:19.641Z,100176.50
2023-03-15T01:07:46.153Z,100184.50
2023-03-15T01:10:14.573Z,100182.22
2023-03-15T01:12:41.618Z,100177.06
2023-03-15T01:15:10.402Z,100187.38
2023-03-15T01:17:36.758Z,100186.16
2023-03-15T01:20:05.364Z,100190.63
2023-03-15T01:22:31.778Z,100195.72
2023-03-15T01:24:58.184Z,100195.00
2023-03-15T01:27:24.650Z,100203.63
2023-03-15T01:29:51.059Z,100210.59
2023-03-15T01:32:17.434Z,100205.81
2023-03-15T01:34:43.945Z,100204.41
2023-03-15T01:37:14.344Z,100208.50
2023-03-15T01:39:42.477Z,100197.28
2023-03-15T01:42:10.044Z,100203.56
2023-03-15T01:45:25.896Z,100210.28
2023-03-15T01:47:53.422Z,100212.00
2023-03-15T01:50:19.869Z,100215.94
2023-03-15T01:52:46.784Z,100221.41
2023-03-15T01:55:16.743Z,100217.28
2023-03-15T01:57:56.287Z,100215.53
2023-03-15T02:00:22.843Z,100221.50
2023-03-15T02:02:55.062Z,100224.44
2023-03-15T02:05:29.779Z,100231.25
2023-03-15T02:07:56.454Z,100237.81
2023-03-15T02:10:33.872Z,100229.94
2023-03-15T02:13:00.642Z,100233.28
2023-03-15T02:15:27.552Z,100237.09
2023-03-15T02:17:53.969Z,100237.94
2023-03-15T02:20:40.628Z,100244.25
2023-03-15T02:23:11.893Z,100253.03
2023-03-15T02:26:13.541Z,100250.88
2023-03-15T02:28:41.478Z,100251.19
2023-03-15T02:31:08.169Z,100249.00
2023-03-15T02:33:44.790Z,100256.66
2023-03-15T02:36:21.594Z,100257.00
2023-03-15T02:38:49.569Z,100251.03
2023-03-15T02:41:24.496Z,100256.91
2023-03-15T02:43:55.413Z,100252.72
2023-03-15T02:46:22.858Z,100259.22
2023-03-15T02:48:49.894Z,100254.72
2023-03-15T02:51:28.399Z,100257.69
2023-03-15T02:53:54.864Z,100265.63
2023-03-15T02:56:21.370Z,100263.53
2023-03-15T02:58:48.240Z,100273.91
2023-03-15T03:01:16.115Z,100279.72
2023-03-15T03:03:45.053Z,100275.22
2023-03-15T03:06:13.300Z,100285.13
2023-03-15T03:08:39.776Z,100285.63
2023-03-15T03:11:07.313Z,100286.63
2023-03-15T03:13:33.979Z,100300.09
2023-03-15T03:16:00.376Z,100301.13
2023-03-15T03:18:28.773Z,100302.00
2023-03-15T03:20:56.995Z,100305.72
2023-03-15T03:23:27.189Z,100309.34
2023-03-15T03:25:55.398Z,100318.69
2023-03-15T03:28:24.124Z,100317.41
2023-03-15T03:30:52.437Z,100319.31
2023-03-15T03:33:19.377Z,100315.59
2023-03-15T03:35:45.826Z,100316.31
2023-03-15T03:38:12.623Z,100315.91
2023-03-15T03:40:39.950Z,100329.28
2023-03-15T03:43:07.708Z,100340.50
2023-03-15T03:45:34.936Z,100346.91
2023-03-15T03:48:03.749Z,100341.50
2023-03-15T03:50:31.754Z,100349.97
2023-03-15T03:52:58.156Z,100346.19
2023-03-15T03:55:25.386Z,100351.41
2023-03-15T03:57:53.039Z,100355.28
2023-03-15T04:00:19.995Z,100358.28
2023-03-15T04:02:46.507Z,100361.56
2023-03-15T04:05:13.561Z,100365.53
2023-03-15T04:07:40.157Z,100375.66
2023-03-15T04:10:06.856Z,100366.78
2023-03-15T04:12:33.389Z,100371.66
2023-03-15T04:14:59.867Z,100371.88
2023-03-15T04:17:26.216Z,100364.38
2023-03-15T04:19:52.869Z,100371.19
2023-03-15T04:22:19.312Z,100367.28
2023-03-15T04:24:45.748Z,100377.28
2023-03-15T04:27:15.064Z,100379.88
2023-03-15T04:29:43.518Z,100380.56
2023-03-15T04:32:10.623Z,100388.44
2023-03-15T04:34:39.931Z,100394.31
2023-03-15T04:37:06.625Z,100385.75
2023-03-15T04:39:33.022Z,100382.59
2023-03-15T04:41:59.587Z,100386.34
2023-03-15T04:44:27.409Z,100385.66
2023-03-15T04:46:54.840Z,100387.84
2023-03-15T04:49:21.536Z,100381.78
2023-03-15T04:51:47.884Z,100390.28
2023-03-15T04:54:14.353Z,100392.91
2023-03-15T04:56:42.086Z,100395.34
2023-03-15T04:59:10.521Z,100401.84
2023-03-15T05:01:38.279Z,100409.97
2023-03-15T05:04:04.904Z,100407.44
2023-03-15T05:06:31.462Z,100414.56
2023-03-15T05:08:57.881Z,100421.56
2023-03-15T05:11:24.622Z,100415.59
2023-03-15T05:13:51.053Z,100424.09
2023-03-15T05:16:17.733Z,100431.00
2023-03-15T05:18:45.214Z,100435.50
2023-03-15T05:21:13.053Z,100442.81
2023-03-15T05:23:39.891Z,100435.47
2023-03-15T05:26:06.366Z,100447.72
2023-03-15T05:28:32.862Z,100447.22
2023-03-15T05:31:00.644Z,100450.03
2023-03-15T05:33:27.341Z,100455.69
2023-03-15T05:35:56.180Z,100457.47
2023-03-15T05:38:26.401Z,100467.03
2023-03-15T05:40:53.415Z,100477.63
2023-03-15T05:43:20.246Z,100488.34
2023-03-15T05:45:48.502Z,100495.75
2023-03-15T05:48:16.824Z,100501.72
2023-03-15T05:50:43.447Z,100505.38
2023-03-15T05:53:10.456Z,100508.91
2023-03-15T05:55:37.362Z,100517.91
2023-03-15T05:58:03.767Z,100521.56
2023-03-15T06:00:30.604Z,100518.66
2023-03-15T06:02:57.044Z,100518.19
2023-03-15T06:05:23.462Z,100522.59
2023-03-15T06:07:49.886Z,100531.81
2023-03-15T06:10:16.451Z,100529.81
2023-03-15T06:12:42.884Z,100538.22
2023-03-15T06:15:09.780Z,100538.31
2023-03-15T06:17:36.336Z,100543.03
2023-03-15T06:20:02.747Z,100540.22
2023-03-15T06:22:29.100Z,100551.38
2023-03-15T06:24:55.521Z,100559.84
2023-03-15T06:27:22.208Z,100553.13
2023-03-15T06:29:50.369Z,100556.97
2023-03-15T06:32:16.966Z,100561.44
2023-03-15T06:34:44.303Z,100567.16
2023-03-15T06:37:16.380Z,100574.06
2023-03-15T06:39:46.815Z,100575.88
2023-03-15T06:42:13.691Z,100578.88
2023-03-15T06:44:41.173Z,100585.88
2023-03-15T06:47:09.131Z,100585.69
2023-03-15T06:49:35.660Z,100592.16
2023-03-15T06:52:03.807Z,100589.00
2023-03-15T06:54:30.851Z,100589.81
2023-03-15T06:56:57.635Z,100597.41
2023-03-15T06:59:24.307Z,100596.84
2023-03-15T07:01:50.822Z,100606.97
2023-03-15T07:04:17.245Z,100612.06
2023-03-15T07:06:43.711Z,100612.94
2023-03-15T07:09:10.191Z,100619.72
2023-03-15T07:11:36.557Z,100619.53
2023-03-15T07:14:02.953Z,100636.75
2023-03-15T07:16:29.410Z,100638.03
2023-03-15T07:18:56.519Z,100643.16
2023-03-15T07:21:22.987Z,100649.44
2023-03-15T07:23:49.416Z,100642.59
2023-03-15T07:26:15.841Z,100658.13
2023-03-15T07:28:44.640Z,100659.88
2023-03-15T07:31:11.906Z,100663.63
2023-03-15T07:33:38.689Z,100662.13
2023-03-15T07:36:06.674Z,100665.25
2023-03-15T07:38:34.322Z,100666.09
2023-03-15T07:41:05.528Z,100665.66
2023-03-15T07:43:32.819Z,100670.81
2023-03-15T07:45:59.711Z,100679.41
2023-03-15T07:48:26.291Z,100681.69
2023-03-15T07:50:52.737Z,100677.13
2023-03-15T07:53:19.178Z,100687.69
2023-03-15T07:55:47.366Z,100689.44
2023-03-15T07:58:13.992Z,100687.13
2023-03-15T08:00:40.802Z,100690.53
2023-03-15T08:03:08.354Z,100691.94
2023-03-15T08:05:36.141Z,100690.09
2023-03-15T08:08:03.223Z,100696.44
2023-03-15T08:10:29.734Z,100690.13
2023-03-15T08:12:56.153Z,100695.75
2023-03-15T08:15:22.658Z,100701.38
2023-03-15T08:17:49.247Z,100717.50
2023-03-15T08:20:19.843Z,100707.09
2023-03-15T08:22:48.579Z,100709.69
2023-03-15T08:25:17.421Z,100708.00
2023-03-15T08:27:44.192Z,100718.03
2023-03-15T08:30:12.696Z,100720.91
2023-03-15T08:32:44.536Z,100720.59
2023-03-15T08:35:15.153Z,100732.47
2023-03-15T08:37:46.954Z,100734.75
2023-03-15T08:40:19.177Z,100739.59
2023-03-15T08:42:45.745Z,100735.28
2023-03-15T08:45:12.376Z,100737.56
2023-03-15T08:47:38.822Z,100753.72
2023-03-15T08:50:08.539Z,100754.34
2023-03-15T08:52:35.059Z,100762.16
2023-03-15T08:55:01.574Z,100756.63
2023-03-15T08:57:28.890Z,100764.13
2023-03-15T08:59:56.070Z,100758.75
2023-03-15T09:02:23.531Z,100774.50
2023-03-15T09:04:52.397Z,100776.16
2023-03-15T09:07:20.601Z,100786.53
2023-03-15T09:09:48.194Z,100796.63
2023-03-15T09:12:16.247Z,100799.97
2023-03-15T09:14:43.361Z,100807.38
2023-03-15T09:17:10.357Z,100801.75
2023-03-15T09:19:36.920Z,100816.13
2023-03-15T09:22:16.421Z,100819.41
2023-03-15T09:24:43.694Z,100824.69
2023-03-15T09:27:11.683Z,100832.22
2023-03-15T09:29:38.094Z,100842.94
2023-03-15T09:32:04.815Z,100842.66
2023-03-15T09:34:39.868Z,100847.75
2023-03-15T09:37:08.626Z,100845.47
2023-03-15T09:39:35.048Z,100850.66
2023-03-15T09:42:06.459Z,100854.97
2023-03-15T09:44:33.311Z,100858.28
2023-03-15T09:47:36.587Z,100860.69
2023-03-15T09:50:22.641Z,100854.41
2023-03-15T09:52:56.224Z,100856.19
2023-03-15T09:55:28.516Z,100864.91
2023-03-15T09:57:59.740Z,100868.00
2023-03-15T10:00:36.575Z,100877.47
2023-03-15T10:03:07.021Z,100889.91
2023-03-15T10:05:47.246Z,100886.06
2023-03-15T10:08:17.453Z,100893.75
2023-03-15T10:11:27.036Z,100891.78
2023-03-15T10:14:11.842Z,100897.53
2023-03-15T10:16:44.227Z,100900.03
2023-03-15T10:19:31.827Z,100896.44
2023-03-15T10:22:18.508Z,100902.13
2023-03-15T10:25:01.986Z,100903.59
2023-03-15T10:27:34.557Z,100902.38
2023-03-15T10:30:02.502Z,100902.56
2023-03-15T10:32:43.282Z,100907.59
2023-03-15T10:35:18.357Z,100912.56
2023-03-15T10:37:45.358Z,100919.59
2023-03-15T10:40:16.533Z,100920.53
2023-03-15T10:42:44.957Z,100922.38
2023-03-15T10:45:19.838Z,100922.59
2023-03-15T10:47:57.735Z,100922.78
2023-03-15T10:50:29.096Z,100922.78
2023-03-15T10:52:57.578Z,100921.47
2023-03-15T10:55:36.824Z,100922.38
2023-03-15T10:58:20.917Z,100918.09
2023-03-15T11:00:52.642Z,100926.19
2023-03-15T11:03:22.467Z,100927.53
2023-03-15T11:05:53.181Z,100927.06
2023-03-15T11:08:22.527Z,100925.88
2023-03-15T11:11:00.131Z,100930.31
2023-03-15T11:13:29.219Z,100930.63
2023-03-15T11:16:13.937Z,100931.06
2023-03-15T11:18:47.108Z,100930.25
2023-03-15T11:21:17.252Z,100928.47
2023-03-15T11:23:47.880Z,100936.41
2023-03-15T11:26:32.301Z,100936.13
2023-03-15T11:29:04.756Z,100929.69
2023-03-15T11:31:31.742Z,100925.72
2023-03-15T11:34:03.369Z,100930.53
2023-03-15T11:36:31.989Z,100945.25
2023-03-15T11:39:02.840Z,100935.13
2023-03-15T11:41:43.816Z,100935.25
2023-03-15T11:44:23.509Z,100931.44
2023-03-15T11:46:57.729Z,100933.03
2023-03-15T11:49:35.212Z,100933.25
2023-03-15T11:52:02.297Z,100934.38
2023-03-15T11:54:32.080Z,100927.06
2023-03-15T11:57:06.210Z,100926.03
2023-03-15T11:59:40.399Z,100924.38
2023-03-15T12:02:09.686Z,100921.34
2023-03-15T12:04:36.261Z,100920.41
2023-03-15T12:07:27.723Z,100927.78
2023-03-15T12:10:18.485Z,100927.78
2023-03-15T12:12:47.239Z,100923.19
2023-03-15T12:15:19.864Z,100930.28
2023-03-15T12:17:58.034Z,100931.13
2023-03-15T12:20:40.801Z,100925.94
2023-03-15T12:23:18.928Z,100932.06
2023-03-15T12:26:03.786Z,100934.41
2023-03-15T12:28:36.334Z,100942.66
2023-03-15T12:31:09.630Z,100947.47
2023-03-15T12:33:54.974Z,100968.00
2023-03-15T12:36:38.006Z,100956.88
2023-03-15T12:39:16.578Z,100950.81
2023-03-15T12:41:48.773Z,100942.31
2023-03-15T12:44:23.905Z,100944.44
2023-03-15T12:46:50.297Z,100943.50
2023-03-15T12:49:16.675Z,100937.84
2023-03-15T12:51:59.836Z,100941.41
2023-03-15T12:54:33.258Z,100941.31
2023-03-15T12:57:03.180Z,100942.13
2023-03-15T12:59:49.044Z,100944.22
2023-03-15T13:02:35.840Z,100949.81
2023-03-15T13:05:30.178Z,100950.81
2023-03-15T13:08:23.225Z,100948.59
2023-03-15T13:11:07.737Z,100948.28
2023-03-15T13:14:11.029Z,100949.44
2023-03-15T13:16:58.952Z,100952.78
2023-03-15T13:19:34.916Z,100957.22
2023-03-15T13:22:29.006Z,100968.81
2023-03-15T13:25:15.757Z,100963.75
2023-03-15T13:28:04.439Z,100967.75
2023-03-15T13:30:46.622Z,100968.91
2023-03-15T13:33:19.024Z,100968.34
2023-03-15T13:35:55.303Z,100969.03
2023-03-15T13:38:32.354Z,100967.56
2023-03-15T13:41:03.446Z,100973.19
2023-03-15T13:43:33.294Z,100973.97
2023-03-15T13:46:00.866Z,100976.75
2023-03-15T13:48:35.628Z,100972.16
2023-03-15T13:51:09.257Z,100979.91
2023-03-15T13:53:49.814Z,100976.06
2023-03-15T13:56:48.839Z,100975.28
2023-03-15T13:59:17.313Z,100987.19
2023-03-15T14:01:43.814Z,100977.00
2023-03-15T14:04:16.303Z,100973.63
2023-03-15T14:06:45.565Z,100979.97
2023-03-15T14:09:23.768Z,100989.06
2023-03-15T14:12:05.343Z,100987.91
2023-03-15T14:14:36.714Z,100993.03
2023-03-15T14:17:17.940Z,100985.00
2023-03-15T14:19:54.113Z,100987.03
2023-03-15T14:22:21.326Z,100999.81
2023-03-15T14:24:51.750Z,100994.69
2023-03-15T14:27:25.420Z,100993.34
2023-03-15T14:29:54.740Z,100999.06
2023-03-15T14:32:36.385Z,101007.59
2023-03-15T14:35:05.935Z,100989.81
2023-03-15T14:37:41.144Z,101013.53
2023-03-15T14:40:16.885Z,101007.03
2023-03-15T14:42:44.930Z,101014.19
2023-03-15T14:45:12.063Z,101031.81
2023-03-15T14:47:55.357Z,101023.97
2023-03-15T14:50:24.231Z,101024.16
2023-03-15T14:52:51.401Z,101030.81
2023-03-15T14:55:22.556Z,101039.31
2023-03-15T14:57:49.092Z,101077.25
2023-03-15T15:00:17.671Z,101073.97
2023-03-15T15:02:55.291Z,101080.34
2023-03-15T15:05:23.522Z,101078.69
2023-03-15T15:07:54.698Z,101066.91
2023-03-15T15:10:23.424Z,101063.31
2023-03-15T15:12:56.161Z,101063.09
2023-03-15T15:15:30.989Z,101074.47
2023-03-15T15:17:58.637Z,101062.72
2023-03-15T15:20:25.314Z,101065.84
2023-03-15T15:22:52.205Z,101055.16
2023-03-15T15:25:24.053Z,101063.41
2023-03-15T15:27:50.573Z,101056.88
2023-03-15T15:30:19.565Z,101056.13
2023-03-15T15:32:46.334Z,101061.97
2023-03-15T15:35:18.519Z,101060.38
2023-03-15T15:37:47.875Z,101062.59
2023-03-15T15:40:25.845Z,101068.66
2023-03-15T15:42:52.370Z,101059.25
2023-03-15T15:45:19.564Z,101070.63
2023-03-15T15:47:46.607Z,101067.09
2023-03-15T15:50:16.265Z,101064.69
2023-03-15T15:52:52.893Z,101066.38
2023-03-15T15:55:24.570Z,101059.66
2023-03-15T15:57:53.920Z,101055.66
2023-03-15T16:00:25.718Z,101054.28
2023-03-15T16:02:54.590Z,101064.59
2023-03-15T16:05:23.981Z,101063.31
2023-03-15T16:07:51.860Z,101066.72
2023-03-15T16:10:22.053Z,101074.44
2023-03-15T16:12:50.409Z,101071.31
2023-03-15T16:15:17.851Z,101077.25
2023-03-15T16:17:45.291Z,101078.88
2023-03-15T16:20:13.655Z,101084.78
2023-03-15T16:22:46.568Z,101088.34
2023-03-15T16:25:23.642Z,101097.19
2023-03-15T16:27:54.464Z,101100.91
2023-03-15T16:30:26.804Z,101096.78
2023-03-15T16:32:56.504Z,101110.16
2023-03-15T16:35:26.905Z,101106.69
2023-03-15T16:37:56.466Z,101102.50
2023-03-15T16:40:44.942Z,101113.06
2023-03-15T16:43:13.724Z,101108.16
2023-03-15T16:45:40.964Z,101108.44
2023-03-15T16:48:07.620Z,101111.78
2023-03-15T16:50:34.870Z,101119.81
2023-03-15T16:53:05.075Z,101122.31
2023-03-15T16:55:35.230Z,101128.88
2023-03-15T16:58:04.559Z,101125.41
2023-03-15T17:00:31.618Z,101140.31
2023-03-15T17:03:01.605Z,101138.38
2023-03-15T17:05:28.610Z,101146.19
2023-03-15T17:07:55.602Z,101150.63
2023-03-15T17:10:23.007Z,101155.63
2023-03-15T17:12:51.346Z,101174.13
2023-03-15T17:15:20.398Z,101177.81
2023-03-15T17:17:48.648Z,101181.44
2023-03-15T17:20:21.479Z,101190.19
2023-03-15T17:22:53.744Z,101184.84
2023-03-15T17:25:20.154Z,101179.09
2023-03-15T17:27:49.159Z,101178.19
2023-03-15T17:30:21.412Z,101183.13
2023-03-15T17:32:48.196Z,101183.72
2023-03-15T17:35:16.921Z,101172.13
2023-03-15T17:37:44.606Z,101201.50
2023-03-15T17:40:18.223Z,101202.38
2023-03-15T17:42:44.709Z,101205.81
2023-03-15T17:45:16.583Z,101202.06
2023-03-15T17:47:43.545Z,101212.34
2023-03-15T17:50:11.319Z,101216.44
2023-03-15T17:52:37.964Z,101212.63
2023-03-15T17:55:04.729Z,101218.84
2023-03-15T17:57:31.154Z,101214.75
2023-03-15T17:59:57.646Z,101215.47
2023-03-15T18:02:24.548Z,101222.16
2023-03-15T18:04:51.010Z,101224.13
2023-03-15T18:07:17.447Z,101230.34
2023-03-15T18:09:43.951Z,101225.53
2023-03-15T18:12:11.659Z,101227.34
2023-03-15T18:14:39.253Z,101232.84
2023-03-15T18:17:05.722Z,101242.16
2023-03-15T18:19:32.216Z,101243.44
2023-03-15T18:21:58.702Z,101251.50
2023-03-15T18:24:25.218Z,101244.31
2023-03-15T18:26:52.836Z,101249.03
2023-03-15T18:29:19.325Z,101252.91
2023-03-15T18:31:45.895Z,101256.72
2023-03-15T18:34:15.609Z,101248.97
2023-03-15T18:36:42.112Z,101248.91
2023-03-15T18:39:08.781Z,101249.94
2023-03-15T18:41:35.314Z,101251.81
2023-03-15T18:44:01.839Z,101253.41
2023-03-15T18:46:28.419Z,101257.13
2023-03-15T18:48:55.011Z,101262.06
2023-03-15T18:51:28.149Z,101267.78
2023-03-15T18:53:55.386Z,101268.59
2023-03-15T18:56:24.500Z,101264.81
2023-03-15T18:58:52.568Z,101268.88
2023-03-15T19:01:22.856Z,101268.72
2023-03-15T19:03:50.342Z,101252.84
2023-03-15T19:06:17.449Z,101267.25
2023-03-15T19:08:44.371Z,101267.28
2023-03-15T19:11:11.270Z,101275.19
2023-03-15T19:13:38.066Z,101272.69
2023-03-15T19:16:04.825Z,101277.16
2023-03-15T19:18:32.676Z,101282.53
2023-03-15T19:20:59.454Z,101276.72
2023-03-15T19:23:26.459Z,101269.31
2023-03-15T19:25:53.079Z,101284.00
2023-03-15T19:28:19.517Z,101274.75
2023-03-15T19:30:46.016Z,101275.34
2023-03-15T19:33:12.618Z,101277.00
2023-03-15T19:35:39.161Z,101277.03
2023-03-15T19:38:05.741Z,101277.38
2023-03-15T19:40:32.181Z,101274.84
2023-03-15T19:42:58.609Z,101285.25
2023-03-15T19:45:25.397Z,101287.06
2023-03-15T19:47:51.847Z,101289.13
2023-03-15T19:50:18.479Z,101291.88
2023-03-15T19:52:48.065Z,101293.56
2023-03-15T19:55:16.933Z,101298.97
2023-03-15T19:57:43.870Z,101296.00
2023-03-15T20:00:14.686Z,101293.09
2023-03-15T20:02:41.949Z,101299.03
2023-03-15T20:05:10.560Z,101298.47
2023-03-15T20:07:37.610Z,101296.41
2023-03-15T20:10:05.907Z,101303.22
2023-03-15T20:12:32.620Z,101296.53
2023-03-15T20:14:59.394Z,101307.03
2023-03-15T20:17:27.356Z,101304.28
2023-03-15T20:19:54.145Z,101298.69
2023-03-15T20:22:21.084Z,101304.91
2023-03-15T20:24:47.683Z,101295.78
2023-03-15T20:27:14.208Z,101301.94
2023-03-15T20:29:40.715Z,101315.47
2023-03-15T20:32:07.264Z,101313.56
2023-03-15T20:34:33.812Z,101319.81
2023-03-15T20:37:00.497Z,101313.03
2023-03-15T20:39:26.992Z,101310.03
2023-03-15T20:41:53.508Z,101317.94
2023-03-15T20:44:20.048Z,101322.00
2023-03-15T20:46:46.846Z,101321.75
2023-03-15T20:49:15.031Z,101324.97
2023-03-15T20:51:42.094Z,101332.53
2023-03-15T20:54:09.335Z,101339.00
2023-03-15T20:56:37.053Z,101340.31
2023-03-15T20:59:04.422Z,101336.28
2023-03-15T21:01:32.115Z,101340.91
2023-03-15T21:03:59.215Z,101342.00
2023-03-15T21:06:26.494Z,101343.28
2023-03-15T21:08:53.604Z,101348.41
2023-03-15T21:11:20.827Z,101342.47
2023-03-15T21:13:47.806Z,101344.16
2023-03-15T21:16:14.577Z,101340.94
2023-03-15T21:18:45.118Z,101343.59
2023-03-15T21:21:12.235Z,101345.22
2023-03-15T21:23:38.800Z,101336.84
2023-03-15T21:26:08.174Z,101341.97
2023-03-15T21:28:35.779Z,101343.09
2023-03-15T21:31:02.661Z,101340.09
2023-03-15T21:33:31.368Z,101345.44
2023-03-15T21:35:59.527Z,101349.53
2023-03-15T21:38:34.989Z,101347.34
2023-03-15T21:41:07.285Z,101352.78
2023-03-15T21:43:34.303Z,101352.78
2023-03-15T21:46:11.859Z,101355.97
2023-03-15T21:48:38.633Z,101363.56
2023-03-15T21:51:07.258Z,101356.03
2023-03-15T21:53:35.455Z,101366.84
2023-03-15T21:56:03.888Z,101367.38
2023-03-15T21:58:30.742Z,101369.53
2023-03-15T22:01:06.024Z,101369.53
2023-03-15T22:03:33.924Z,101373.00
2023-03-15T22:06:00.806Z,101377.91
2023-03-15T22:08:27.740Z,101376.31
2023-03-15T22:10:55.478Z,101378.94
2023-03-15T22:13:22.288Z,101383.81
2023-03-15T22:15:48.914Z,101384.59
2023-03-15T22:18:15.456Z,101390.31
2023-03-15T22:20:41.899Z,101392.75
2023-03-15T22:23:08.711Z,101398.69
2023-03-15T22:25:37.454Z,101397.56
2023-03-15T22:28:03.945Z,101401.91
2023-03-15T22:30:30.509Z,101399.75
2023-03-15T22:32:57.173Z,101403.53
2023-03-15T22:35:23.893Z,101408.09
2023-03-15T22:37:56.419Z,101405.41
2023-03-15T22:40:27.953Z,101400.00
2023-03-15T22:42:57.317Z,101411.09
2023-03-15T22:45:26.101Z,101407.59
2023-03-15T22:47:53.419Z,101413.81
2023-03-15T22:50:20.446Z,101409.47
2023-03-15T22:52:47.490Z,101408.91
2023-03-15T22:55:14.395Z,101414.06
2023-03-15T22:57:40.863Z,101408.41
2023-03-15T23:00:13.939Z,101411.09
2023-03-15T23:02:42.063Z,101411.09
2023-03-15T23:05:09.897Z,101419.19
2023-03-15T23:07:36.405Z,101417.59
2023-03-15T23:10:03.612Z,101417.84
2023-03-15T23:12:35.844Z,101415.69
2023-03-15T23:15:04.501Z,101430.78
2023-03-15T23:17:31.290Z,101425.94
2023-03-15T23:19:58.061Z,101428.38
2023-03-15T23:22:24.606Z,101434.03
2023-03-15T23:24:51.491Z,101429.72
2023-03-15T23:27:18.012Z,101431.88
2023-03-15T23:29:54.129Z,101430.78
2023-03-15T23:32:22.030Z,101431.56
2023-03-15T23:34:48.758Z,101428.88
2023-03-15T23:37:15.389Z,101431.59
2023-03-15T23:39:42.390Z,101435.34
2023-03-15T23:42:09.092Z,101436.69
2023-03-15T23:44:35.596Z,101445.09
2023-03-15T23:47:03.486Z,101439.16
2023-03-15T23:49:29.965Z,101436.16
2023-03-15T23:51:56.345Z,101438.31
2023-03-15T23:54:22.834Z,101445.31
2023-03-15T23:56:49.333Z,101452.09
2023-03-15T23:59:15.913Z,101448.59
